Main page
METAR-TAF:

METAR-TAF

Airports :

Kithira Island National Airport

Kythira, Greece

latitude: 36-17-21N, longitude: 023-01-24E, elevation: 321 m

Current weather observation

The report was made 2 hours and 1 minutes ago, at 16:50 UTC
Wind 7 kt from the West/Northwest
Temperature 26°C
Humidity 74%
Pressure 1017 hPa
Visibility 10 km or more
no clouds below 1500 m and no cumulonimbus

METAR: LGKC 201650Z 29007KT CAVOK 26/21 Q1017

Time: 21:51 (18:51 UTC)

Forecast

The report was made 1 hour and 51 minutes ago, at 17:00 UTC
Forecast valid from 20 at 18 UTC to 21 at 03 UTC
Wind 8 kt from the West
Visibility 10 km or more
Few clouds at a height of 1800 ft
Becoming
from 20 at 22 UTC to 20 at 24 UTC
Wind 15 kt from the North

TAF: LGKC 201700Z 2018/2103 27008KT 9999 FEW018 BECMG 2022/2024 01015KT

Weather observations and forecasts of more than 4000 airports (METAR and TAF reports).

The available stations are represented by yellow and red dots on the map.

Hover mouse over dot to see the name of the station.

Then click to see weather observations and forecasts.

To change the map : click on the green buttons with a black cross to zoom in, on the green button with a dash to zoom out, or on the green arrows for adjacent maps.


METAR-TAF: